createdAt,value
2017-05-14T00:00:38.978Z,86.41
2017-05-14T00:01:40.402Z,86.46
2017-05-14T00:02:41.826Z,86.88
2017-05-14T00:03:43.257Z,87.08
2017-05-14T00:04:44.693Z,86.41
2017-05-14T00:05:46.120Z,86.98
2017-05-14T00:06:47.547Z,87.27
2017-05-14T00:07:48.987Z,86.79
2017-05-14T00:08:50.419Z,86.65
2017-05-14T00:09:51.851Z,87.32
2017-05-14T00:10:53.301Z,87.41
2017-05-14T00:11:54.733Z,87.80
2017-05-14T00:12:56.162Z,88.95
2017-05-14T00:13:57.592Z,87.70
2017-05-14T00:14:59.014Z,87.23
2017-05-14T00:16:00.447Z,87.51
2017-05-14T00:17:01.895Z,87.41
2017-05-14T00:18:03.314Z,87.55
2017-05-14T00:19:04.743Z,87.46
2017-05-14T00:20:06.175Z,87.32
2017-05-14T00:21:07.610Z,87.32
2017-05-14T00:22:09.095Z,88.85
2017-05-14T00:23:10.525Z,89.90
2017-05-14T00:24:11.955Z,88.28
2017-05-14T00:25:13.383Z,87.51
2017-05-14T00:26:14.814Z,87.41
2017-05-14T00:27:16.243Z,87.70
2017-05-14T00:28:17.668Z,87.32
2017-05-14T00:29:19.104Z,86.36
2017-05-14T00:30:20.603Z,86.69
2017-05-14T00:31:22.044Z,86.17
2017-05-14T00:32:23.471Z,86.17
2017-05-14T00:33:24.899Z,85.98
2017-05-14T00:34:26.326Z,85.16
2017-05-14T00:35:27.761Z,86.12
2017-05-14T00:36:29.197Z,86.02
2017-05-14T00:37:30.627Z,86.50
2017-05-14T00:38:32.062Z,86.60
2017-05-14T00:39:33.486Z,87.37
2017-05-14T00:40:34.932Z,87.13
2017-05-14T00:41:36.369Z,87.32
2017-05-14T00:42:37.802Z,87.61
2017-05-14T00:43:39.228Z,87.90
2017-05-14T00:44:40.659Z,87.32
2017-05-14T00:45:42.092Z,87.41
2017-05-14T00:46:43.525Z,87.41
2017-05-14T00:47:44.949Z,87.80
2017-05-14T00:48:46.380Z,87.65
2017-05-14T00:49:47.805Z,86.31
2017-05-14T00:50:49.226Z,86.65
2017-05-14T00:51:50.660Z,86.94
2017-05-14T00:52:52.096Z,87.32
2017-05-14T00:53:53.532Z,87.41
2017-05-14T00:54:54.960Z,87.51
2017-05-14T00:55:56.388Z,87.23
2017-05-14T00:56:57.817Z,87.32
2017-05-14T00:57:59.252Z,87.32
2017-05-14T00:59:00.686Z,87.13
2017-05-14T01:00:02.119Z,87.41
2017-05-14T01:01:03.548Z,87.51
2017-05-14T01:02:04.975Z,87.70
2017-05-14T01:03:06.403Z,87.80
2017-05-14T01:04:07.831Z,87.90
2017-05-14T01:05:09.264Z,88.28
2017-05-14T01:06:10.694Z,87.80
2017-05-14T01:07:12.122Z,87.27
2017-05-14T01:08:14.135Z,87.76
2017-05-14T01:09:15.565Z,87.95
2017-05-14T01:10:17.001Z,88.52
2017-05-14T01:11:19.231Z,89.24
2017-05-14T01:12:20.427Z,90.48
2017-05-14T01:13:22.643Z,91.63
2017-05-14T01:14:24.071Z,90.58
2017-05-14T01:15:25.502Z,89.86
2017-05-14T01:16:26.941Z,88.62
2017-05-14T01:17:28.367Z,89.38
2017-05-14T01:18:29.803Z,88.62
2017-05-14T01:19:31.233Z,88.13
2017-05-14T01:20:32.663Z,87.37
2017-05-14T01:21:34.089Z,87.47
2017-05-14T01:22:35.523Z,87.85
2017-05-14T01:23:36.947Z,88.86
2017-05-14T01:24:38.379Z,88.95
2017-05-14T01:25:39.807Z,88.67
2017-05-14T01:26:41.235Z,88.95
2017-05-14T01:27:42.673Z,88.81
2017-05-14T01:28:44.098Z,88.48
2017-05-14T01:29:45.530Z,88.71
2017-05-14T01:30:46.967Z,88.13
2017-05-14T01:31:48.394Z,88.52
2017-05-14T01:32:49.818Z,87.33
2017-05-14T01:33:51.246Z,87.33
2017-05-14T01:34:52.669Z,87.81
2017-05-14T01:35:54.093Z,88.57
2017-05-14T01:36:55.525Z,88.57
2017-05-14T01:37:56.952Z,88.86
2017-05-14T01:38:58.386Z,88.57
2017-05-14T01:39:59.820Z,88.72
2017-05-14T01:41:01.247Z,88.62
2017-05-14T01:42:02.680Z,89.15
2017-05-14T01:43:04.110Z,89.53
2017-05-14T01:44:05.539Z,88.48
2017-05-14T01:45:07.018Z,88.38
2017-05-14T01:46:08.446Z,88.95
2017-05-14T01:47:09.876Z,88.57
2017-05-14T01:48:11.316Z,87.71
2017-05-14T01:49:12.744Z,87.62
2017-05-14T01:50:14.167Z,88.38
2017-05-14T01:51:15.600Z,88.00
2017-05-14T01:52:17.040Z,87.90
2017-05-14T01:53:18.464Z,88.00
2017-05-14T01:54:19.901Z,87.81
2017-05-14T01:55:21.332Z,87.52
2017-05-14T01:56:22.765Z,88.91
2017-05-14T01:57:24.187Z,89.48
2017-05-14T01:58:25.624Z,89.43
2017-05-14T01:59:27.053Z,89.48
2017-05-14T02:00:28.486Z,90.01
2017-05-14T02:01:29.913Z,89.91
2017-05-14T02:02:31.386Z,89.05
2017-05-14T02:03:32.777Z,89.53
2017-05-14T02:04:34.202Z,90.06
2017-05-14T02:05:35.633Z,91.97
2017-05-14T02:06:37.070Z,91.30
2017-05-14T02:07:38.495Z,91.68
2017-05-14T02:08:39.919Z,92.35
2017-05-14T02:09:41.352Z,91.02
2017-05-14T02:10:42.784Z,90.16
2017-05-14T02:11:44.219Z,89.77
2017-05-14T02:12:45.643Z,90.44
2017-05-14T02:13:47.075Z,90.53
2017-05-14T02:14:48.501Z,90.44
2017-05-14T02:15:49.933Z,90.82
2017-05-14T02:16:51.360Z,90.25
2017-05-14T02:17:52.779Z,91.20
2017-05-14T02:18:54.205Z,90.73
2017-05-14T02:19:55.634Z,90.16
2017-05-14T02:20:57.064Z,89.67
2017-05-14T02:21:58.495Z,89.96
2017-05-14T02:22:59.920Z,89.58
2017-05-14T02:24:01.354Z,90.06
2017-05-14T02:25:02.777Z,89.77
2017-05-14T02:26:04.213Z,90.16
2017-05-14T02:27:05.640Z,89.20
2017-05-14T02:28:07.082Z,90.53
2017-05-14T02:29:08.507Z,90.44
2017-05-14T02:30:09.942Z,90.06
2017-05-14T02:31:11.368Z,89.29
2017-05-14T02:32:12.798Z,90.20
2017-05-14T02:33:14.860Z,90.16
2017-05-14T02:34:16.288Z,90.34
2017-05-14T02:35:17.718Z,90.16
2017-05-14T02:36:19.171Z,91.35
2017-05-14T02:37:20.603Z,91.20
2017-05-14T02:38:22.027Z,91.49
2017-05-14T02:39:23.452Z,91.39
2017-05-14T02:40:24.969Z,91.39
2017-05-14T02:41:26.403Z,91.59
2017-05-14T02:42:27.832Z,91.39
2017-05-14T02:43:29.251Z,90.34
2017-05-14T02:44:30.752Z,90.53
2017-05-14T02:45:32.176Z,90.82
2017-05-14T02:46:33.598Z,89.96
2017-05-14T02:47:35.029Z,92.40
2017-05-14T02:48:36.505Z,93.93
2017-05-14T02:49:37.934Z,94.41
2017-05-14T02:50:39.365Z,94.22
2017-05-14T02:51:41.725Z,94.12
2017-05-14T02:52:43.169Z,94.07
2017-05-14T02:53:44.705Z,93.16
2017-05-14T02:54:46.129Z,93.74
2017-05-14T02:55:48.348Z,95.03
2017-05-14T02:56:49.776Z,96.08
2017-05-14T02:57:51.208Z,96.27
2017-05-14T02:58:52.635Z,96.22
2017-05-14T02:59:54.063Z,95.56
2017-05-14T03:00:55.492Z,94.41
2017-05-14T03:01:56.918Z,94.31
2017-05-14T03:02:58.342Z,94.51
2017-05-14T03:03:59.776Z,94.41
2017-05-14T03:05:02.767Z,93.98
2017-05-14T03:06:03.406Z,93.60
2017-05-14T03:07:04.832Z,93.12
2017-05-14T03:08:06.262Z,93.02
2017-05-14T03:09:07.687Z,92.93
2017-05-14T03:10:09.108Z,93.93
2017-05-14T03:11:10.538Z,94.31
2017-05-14T03:12:11.965Z,94.22
2017-05-14T03:13:13.394Z,92.35
2017-05-14T03:14:14.826Z,91.78
2017-05-14T03:15:16.258Z,93.74
2017-05-14T03:16:17.692Z,94.70
2017-05-14T03:17:19.130Z,93.26
2017-05-14T03:18:20.553Z,92.88
2017-05-14T03:19:21.981Z,92.88
2017-05-14T03:20:23.412Z,92.97
2017-05-14T03:21:24.839Z,93.55
2017-05-14T03:22:26.273Z,94.60
2017-05-14T03:23:27.697Z,94.89
2017-05-14T03:24:29.126Z,94.51
2017-05-14T03:25:30.555Z,93.74
2017-05-14T03:26:31.983Z,93.16
2017-05-14T03:27:33.420Z,93.26
2017-05-14T03:28:34.845Z,92.97
2017-05-14T03:29:36.269Z,93.93
2017-05-14T03:30:37.700Z,94.51
2017-05-14T03:31:39.127Z,94.98
2017-05-14T03:32:40.616Z,95.70
2017-05-14T03:33:42.778Z,95.98
2017-05-14T03:34:43.413Z,94.89
2017-05-14T03:35:44.864Z,94.22
2017-05-14T03:36:46.297Z,93.65
2017-05-14T03:37:47.729Z,93.55
2017-05-14T03:38:49.252Z,92.79
2017-05-14T03:39:50.694Z,94.46
2017-05-14T03:40:52.122Z,94.46
2017-05-14T03:41:53.551Z,94.65
2017-05-14T03:42:54.982Z,94.65
2017-05-14T03:43:56.412Z,94.55
2017-05-14T03:44:57.844Z,94.46
2017-05-14T03:45:59.272Z,93.98
2017-05-14T03:47:00.701Z,94.46
2017-05-14T03:48:02.129Z,94.07
2017-05-14T03:49:03.562Z,93.70
2017-05-14T03:50:05.091Z,93.98
2017-05-14T03:51:06.523Z,93.50
2017-05-14T03:52:07.949Z,93.70
2017-05-14T03:53:09.380Z,93.21
2017-05-14T03:54:10.813Z,92.64
2017-05-14T03:55:12.237Z,92.11
2017-05-14T03:56:13.674Z,91.93
2017-05-14T03:57:15.191Z,92.02
2017-05-14T03:58:16.646Z,92.16
2017-05-14T03:59:18.072Z,91.93
2017-05-14T04:00:19.508Z,91.02
2017-05-14T04:01:20.957Z,91.50
2017-05-14T04:02:22.461Z,91.40
2017-05-14T04:03:24.472Z,92.16
2017-05-14T04:04:25.896Z,91.64
2017-05-14T04:05:27.326Z,92.16
2017-05-14T04:06:28.760Z,92.16
2017-05-14T04:07:30.195Z,93.02
2017-05-14T04:08:31.624Z,93.02
2017-05-14T04:09:33.055Z,92.07
2017-05-14T04:10:34.489Z,91.97
2017-05-14T04:11:35.920Z,91.69
2017-05-14T04:12:37.352Z,90.92
2017-05-14T04:13:38.782Z,92.26
2017-05-14T04:14:40.210Z,91.97
2017-05-14T04:15:41.645Z,92.26
2017-05-14T04:16:43.076Z,92.74
2017-05-14T04:17:44.499Z,92.45
2017-05-14T04:18:45.931Z,92.55
2017-05-14T04:19:47.369Z,92.45
2017-05-14T04:20:48.793Z,92.07
2017-05-14T04:21:50.224Z,91.40
2017-05-14T04:22:51.655Z,91.11
2017-05-14T04:23:53.571Z,91.50
2017-05-14T04:24:54.995Z,92.21
2017-05-14T04:25:56.426Z,93.84
2017-05-14T04:26:57.859Z,93.60
2017-05-14T04:27:59.291Z,92.74
2017-05-14T04:29:00.721Z,91.50
2017-05-14T04:30:02.154Z,92.83
2017-05-14T04:31:03.587Z,92.02
2017-05-14T04:32:05.011Z,92.41
2017-05-14T04:33:06.444Z,92.02
2017-05-14T04:34:07.873Z,92.21
2017-05-14T04:35:11.043Z,92.45
2017-05-14T04:36:12.474Z,92.26
2017-05-14T04:37:13.902Z,91.78
2017-05-14T04:38:15.333Z,91.97
2017-05-14T04:39:16.749Z,92.93
2017-05-14T04:40:18.182Z,92.69
2017-05-14T04:41:20.211Z,94.12
2017-05-14T04:42:21.641Z,93.93
2017-05-14T04:43:23.070Z,93.55
2017-05-14T04:44:24.503Z,94.03
2017-05-14T04:45:25.934Z,94.22
2017-05-14T04:46:27.365Z,94.31
2017-05-14T04:47:28.803Z,94.03
2017-05-14T04:48:30.237Z,92.79
2017-05-14T04:49:31.665Z,92.55
2017-05-14T04:50:33.094Z,92.64
2017-05-14T04:51:34.520Z,94.12
2017-05-14T04:52:35.952Z,94.60
2017-05-14T04:53:37.381Z,94.79
2017-05-14T04:54:38.854Z,94.17
2017-05-14T04:55:40.244Z,94.98
2017-05-14T04:56:41.675Z,94.60
2017-05-14T04:57:43.107Z,95.36
2017-05-14T04:58:44.545Z,96.89
2017-05-14T04:59:45.973Z,97.18
2017-05-14T05:00:47.408Z,97.75
2017-05-14T05:01:48.834Z,97.85
2017-05-14T05:02:50.264Z,97.94
2017-05-14T05:03:51.695Z,97.27
2017-05-14T05:04:53.124Z,97.37
2017-05-14T05:05:54.548Z,98.13
2017-05-14T05:06:55.977Z,98.03
2017-05-14T05:07:57.411Z,98.13
2017-05-14T05:08:58.843Z,99.08
2017-05-14T05:10:00.271Z,99.85
2017-05-14T05:11:01.700Z,99.37
2017-05-14T05:12:03.133Z,99.47
2017-05-14T05:13:04.563Z,99.08
2017-05-14T05:14:05.994Z,99.37
2017-05-14T05:15:07.429Z,99.08
2017-05-14T05:16:08.864Z,98.61
2017-05-14T05:17:10.297Z,98.99
2017-05-14T05:18:11.721Z,98.66
2017-05-14T05:19:13.160Z,98.85
2017-05-14T05:20:15.493Z,98.71
2017-05-14T05:21:16.925Z,98.75
2017-05-14T05:22:18.363Z,98.66
2017-05-14T05:23:19.808Z,98.37
2017-05-14T05:24:21.236Z,97.89
2017-05-14T05:25:22.670Z,97.89
2017-05-14T05:26:24.105Z,97.18
2017-05-14T05:27:25.533Z,97.52
2017-05-14T05:28:26.973Z,97.28
2017-05-14T05:29:28.403Z,97.28
2017-05-14T05:30:29.840Z,97.37
2017-05-14T05:31:31.933Z,97.37
2017-05-14T05:32:33.364Z,97.18
2017-05-14T05:33:34.906Z,97.08
2017-05-14T05:34:37.004Z,97.28
2017-05-14T05:35:38.425Z,97.18
2017-05-14T05:36:39.869Z,96.70
2017-05-14T05:37:41.301Z,96.32
2017-05-14T05:38:42.731Z,97.08
2017-05-14T05:39:44.165Z,96.47
2017-05-14T05:40:45.593Z,95.36
2017-05-14T05:41:47.027Z,95.41
2017-05-14T05:42:48.462Z,94.65
2017-05-14T05:43:49.889Z,95.22
2017-05-14T05:44:51.317Z,94.93
2017-05-14T05:45:52.751Z,95.22
2017-05-14T05:46:54.183Z,94.26
2017-05-14T05:47:55.614Z,94.17
2017-05-14T05:48:57.048Z,93.45
2017-05-14T05:49:58.475Z,93.88
2017-05-14T05:50:59.916Z,92.40
2017-05-14T05:52:01.346Z,92.21
2017-05-14T05:53:02.781Z,92.59
2017-05-14T05:54:04.214Z,92.69
2017-05-14T05:55:05.656Z,92.30
2017-05-14T05:56:07.093Z,91.25
2017-05-14T05:57:08.518Z,91.06
2017-05-14T05:58:09.958Z,90.44
2017-05-14T05:59:11.384Z,90.15
2017-05-14T06:00:12.816Z,89.38
2017-05-14T06:01:14.250Z,89.00
2017-05-14T06:02:15.687Z,89.38
2017-05-14T06:03:17.114Z,89.29
2017-05-14T06:04:18.540Z,90.05
2017-05-14T06:05:19.972Z,89.09
2017-05-14T06:06:21.404Z,87.41
2017-05-14T06:07:22.837Z,87.41
2017-05-14T06:08:24.261Z,87.32
2017-05-14T06:09:25.694Z,86.55
2017-05-14T06:10:27.127Z,86.46
2017-05-14T06:11:28.563Z,86.46
2017-05-14T06:12:29.992Z,87.66
2017-05-14T06:13:31.425Z,88.90
2017-05-14T06:14:32.855Z,89.19
2017-05-14T06:15:34.279Z,88.90
2017-05-14T06:16:35.713Z,88.66
2017-05-14T06:17:37.153Z,88.37
2017-05-14T06:18:38.582Z,86.70
2017-05-14T06:19:40.013Z,86.46
2017-05-14T06:20:41.454Z,86.36
2017-05-14T06:21:42.886Z,86.17
2017-05-14T06:22:44.340Z,85.50
2017-05-14T06:23:45.764Z,84.74
2017-05-14T06:24:47.195Z,83.87
2017-05-14T06:25:48.632Z,84.16
2017-05-14T06:26:50.061Z,83.59
2017-05-14T06:27:51.497Z,82.29
2017-05-14T06:28:52.920Z,81.71
2017-05-14T06:29:54.363Z,82.15
2017-05-14T06:30:55.790Z,82.82
2017-05-14T06:31:57.222Z,82.43
2017-05-14T06:32:58.653Z,82.43
2017-05-14T06:34:00.086Z,81.43
2017-05-14T06:35:01.517Z,81.62
2017-05-14T06:36:02.972Z,80.47
2017-05-14T06:37:04.407Z,80.51
2017-05-14T06:38:05.840Z,79.07
2017-05-14T06:39:07.278Z,79.26
2017-05-14T06:40:08.747Z,76.48
2017-05-14T06:41:11.089Z,78.30
2017-05-14T06:42:12.582Z,77.76
2017-05-14T06:43:14.011Z,78.63
2017-05-14T06:44:15.449Z,77.38
2017-05-14T06:45:16.885Z,74.60
2017-05-14T06:46:19.254Z,73.74
2017-05-14T06:47:20.798Z,75.75
2017-05-14T06:48:22.230Z,74.89
2017-05-14T06:49:23.665Z,74.93
2017-05-14T06:50:25.131Z,72.14
2017-05-14T06:51:26.563Z,74.06
2017-05-14T06:52:28.003Z,72.05
2017-05-14T06:53:29.446Z,74.16
2017-05-14T06:54:30.892Z,71.89
2017-05-14T06:55:32.325Z,72.75
2017-05-14T06:56:33.752Z,72.47
2017-05-14T06:57:35.190Z,73.33
2017-05-14T06:58:36.622Z,71.98
2017-05-14T06:59:38.057Z,71.03
2017-05-14T07:00:39.513Z,71.61
2017-05-14T07:01:40.984Z,72.28
2017-05-14T07:02:42.461Z,71.35
2017-05-14T07:03:44.670Z,71.80
2017-05-14T07:04:46.108Z,72.99
2017-05-14T07:05:47.537Z,72.99
2017-05-14T07:06:48.967Z,69.62
2017-05-14T07:07:50.397Z,72.31
2017-05-14T07:08:52.708Z,70.87
2017-05-14T07:09:54.145Z,69.81
2017-05-14T07:10:55.584Z,73.66
2017-05-14T07:11:57.023Z,69.62
2017-05-14T07:12:58.458Z,69.14
2017-05-14T07:13:59.890Z,68.66
2017-05-14T07:15:01.324Z,69.40
2017-05-14T07:16:02.758Z,70.26
2017-05-14T07:17:04.198Z,70.36
2017-05-14T07:18:05.632Z,69.34
2017-05-14T07:19:07.071Z,67.32
2017-05-14T07:20:08.512Z,67.03
2017-05-14T07:21:09.946Z,67.16
2017-05-14T07:22:11.399Z,69.43
2017-05-14T07:23:12.833Z,67.51
2017-05-14T07:24:14.275Z,67.07
2017-05-14T07:25:15.711Z,68.57
2017-05-14T07:26:17.145Z,69.53
2017-05-14T07:27:20.222Z,69.91
2017-05-14T07:28:21.657Z,69.18
2017-05-14T07:29:23.097Z,70.52
2017-05-14T07:30:24.528Z,72.02
2017-05-14T07:31:25.959Z,71.16
2017-05-14T07:32:27.390Z,70.58
2017-05-14T07:33:28.822Z,69.40
2017-05-14T07:34:30.263Z,67.70
2017-05-14T07:35:31.692Z,68.85
2017-05-14T07:36:33.130Z,66.36
2017-05-14T07:37:34.568Z,67.51
2017-05-14T07:38:36.003Z,64.56
2017-05-14T07:39:37.434Z,65.81
2017-05-14T07:40:38.869Z,65.91
2017-05-14T07:41:40.299Z,68.37
2017-05-14T07:42:41.735Z,68.47
2017-05-14T07:43:43.168Z,65.78
2017-05-14T07:44:44.612Z,65.97
2017-05-14T07:45:46.042Z,64.25
2017-05-14T07:46:47.477Z,65.78
2017-05-14T07:47:48.912Z,66.30
2017-05-14T07:48:50.349Z,68.02
2017-05-14T07:49:51.789Z,66.46
2017-05-14T07:50:53.258Z,68.66
2017-05-14T07:51:54.739Z,65.81
2017-05-14T07:52:56.165Z,63.99
2017-05-14T07:53:57.601Z,64.47
2017-05-14T07:54:59.036Z,63.86
2017-05-14T07:56:00.513Z,64.18
2017-05-14T07:57:01.951Z,63.22
2017-05-14T07:58:03.384Z,62.64
2017-05-14T07:59:04.818Z,63.32
2017-05-14T08:00:06.258Z,62.07
2017-05-14T08:01:07.692Z,62.87
2017-05-14T08:02:09.175Z,62.74
2017-05-14T08:03:10.618Z,63.35
2017-05-14T08:04:12.048Z,63.06
2017-05-14T08:05:13.483Z,63.64
2017-05-14T08:06:14.922Z,62.19
2017-05-14T08:07:16.356Z,64.12
2017-05-14T08:08:17.798Z,61.23
2017-05-14T08:09:19.274Z,62.00
2017-05-14T08:10:20.717Z,62.19
2017-05-14T08:11:22.169Z,61.23
2017-05-14T08:12:23.606Z,61.43
2017-05-14T08:13:25.061Z,62.87
2017-05-14T08:14:26.493Z,61.84
2017-05-14T08:15:27.927Z,61.26
2017-05-14T08:16:29.364Z,61.46
2017-05-14T08:17:30.801Z,60.30
2017-05-14T08:18:32.238Z,62.03
2017-05-14T08:19:33.673Z,60.30
2017-05-14T08:20:35.168Z,60.30
2017-05-14T08:21:36.608Z,61.16
2017-05-14T08:22:38.042Z,59.92
2017-05-14T08:23:39.474Z,59.47
2017-05-14T08:24:40.917Z,60.78
2017-05-14T08:25:42.353Z,58.12
2017-05-14T08:26:43.791Z,59.56
2017-05-14T08:27:45.229Z,61.19
2017-05-14T08:28:46.676Z,60.91
2017-05-14T08:29:48.117Z,59.66
2017-05-14T08:30:49.554Z,59.66
2017-05-14T08:31:50.997Z,59.66
2017-05-14T08:32:52.487Z,59.37
2017-05-14T08:33:53.922Z,59.47
2017-05-14T08:34:55.357Z,59.08
2017-05-14T08:35:57.556Z,58.89
2017-05-14T08:36:58.982Z,59.66
2017-05-14T08:38:00.426Z,60.65
2017-05-14T08:39:01.862Z,59.30
2017-05-14T08:40:03.299Z,58.92
2017-05-14T08:41:04.733Z,59.20
2017-05-14T08:42:06.177Z,57.09
2017-05-14T08:43:07.620Z,58.47
2017-05-14T08:44:09.061Z,56.15
2017-05-14T08:45:10.505Z,54.90
2017-05-14T08:46:11.936Z,56.12
2017-05-14T08:47:13.374Z,56.12
2017-05-14T08:48:14.821Z,57.12
2017-05-14T08:49:16.255Z,55.74
2017-05-14T08:50:17.690Z,58.08
2017-05-14T08:51:19.129Z,56.63
2017-05-14T08:52:20.569Z,55.00
2017-05-14T08:53:22.008Z,54.78
2017-05-14T08:54:23.454Z,56.05
2017-05-14T08:55:24.892Z,57.76
2017-05-14T08:56:26.333Z,57.64
2017-05-14T08:57:27.763Z,57.92
2017-05-14T08:58:29.206Z,56.58
2017-05-14T08:59:30.636Z,57.83
2017-05-14T09:00:32.072Z,58.31
2017-05-14T09:01:33.510Z,58.22
2017-05-14T09:02:34.949Z,57.83
2017-05-14T09:03:36.383Z,58.22
2017-05-14T09:04:37.814Z,58.02
2017-05-14T09:05:39.259Z,57.25
2017-05-14T09:06:41.593Z,56.41
2017-05-14T09:07:43.034Z,56.67
2017-05-14T09:08:44.470Z,57.35
2017-05-14T09:09:45.902Z,57.09
2017-05-14T09:10:47.344Z,58.89
2017-05-14T09:11:48.777Z,58.89
2017-05-14T09:12:50.211Z,58.40
2017-05-14T09:13:51.654Z,58.82
2017-05-14T09:14:53.087Z,58.24
2017-05-14T09:15:54.524Z,59.49
2017-05-14T09:16:55.967Z,60.84
2017-05-14T09:17:57.407Z,57.76
2017-05-14T09:18:58.845Z,59.30
2017-05-14T09:20:01.102Z,56.32
2017-05-14T09:21:02.536Z,55.93
2017-05-14T09:22:03.975Z,56.82
2017-05-14T09:23:05.418Z,55.83
2017-05-14T09:24:06.862Z,56.73
2017-05-14T09:25:08.297Z,56.15
2017-05-14T09:26:09.734Z,56.37
2017-05-14T09:27:12.080Z,55.70
2017-05-14T09:28:14.133Z,56.11
2017-05-14T09:29:15.574Z,54.25
2017-05-14T09:30:17.011Z,56.09
2017-05-14T09:31:18.449Z,56.76
2017-05-14T09:32:19.899Z,56.37
2017-05-14T09:33:21.381Z,56.11
2017-05-14T09:34:22.778Z,55.60
2017-05-14T09:35:24.214Z,55.70
2017-05-14T09:36:25.647Z,55.60
2017-05-14T09:37:27.909Z,56.27
2017-05-14T09:38:29.862Z,56.66
2017-05-14T09:39:31.304Z,55.09
2017-05-14T09:40:32.742Z,56.15
2017-05-14T09:41:34.175Z,57.98
2017-05-14T09:42:35.613Z,56.92
2017-05-14T09:43:37.056Z,57.79
2017-05-14T09:44:38.853Z,58.75
2017-05-14T09:45:40.295Z,56.44
2017-05-14T09:46:41.731Z,56.47
2017-05-14T09:47:43.169Z,56.25
2017-05-14T09:48:44.604Z,57.02
2017-05-14T09:49:46.043Z,57.89
2017-05-14T09:50:47.474Z,59.04
2017-05-14T09:51:48.919Z,56.90
2017-05-14T09:52:50.357Z,58.63
2017-05-14T09:53:51.797Z,59.69
2017-05-14T09:54:53.223Z,58.63
2017-05-14T09:55:55.529Z,56.77
2017-05-14T09:56:56.964Z,57.06
2017-05-14T09:57:58.410Z,58.02
2017-05-14T09:58:59.852Z,59.66
2017-05-14T10:00:01.296Z,61.00
2017-05-14T10:01:02.731Z,58.82
2017-05-14T10:02:04.169Z,59.59
2017-05-14T10:03:05.621Z,59.30
2017-05-14T10:04:07.059Z,61.29
2017-05-14T10:05:08.506Z,61.58
2017-05-14T10:06:09.948Z,60.42
2017-05-14T10:07:11.388Z,61.49
2017-05-14T10:08:12.830Z,59.56
2017-05-14T10:09:14.267Z,59.66
2017-05-14T10:10:15.700Z,60.52
2017-05-14T10:11:17.139Z,59.85
2017-05-14T10:12:18.581Z,61.13
2017-05-14T10:13:20.015Z,59.75
2017-05-14T10:14:21.459Z,61.39
2017-05-14T10:15:22.905Z,59.56
2017-05-14T10:16:24.344Z,60.55
2017-05-14T10:17:25.787Z,60.36
2017-05-14T10:18:27.228Z,59.20
2017-05-14T10:19:28.666Z,60.55
2017-05-14T10:20:30.104Z,60.17
2017-05-14T10:21:31.546Z,58.24
2017-05-14T10:22:32.983Z,59.52
2017-05-14T10:23:34.424Z,58.05
2017-05-14T10:24:35.867Z,57.02
2017-05-14T10:25:37.309Z,58.37
2017-05-14T10:26:38.750Z,58.92
2017-05-14T10:27:40.190Z,58.95
2017-05-14T10:28:41.621Z,58.47
2017-05-14T10:29:43.063Z,57.98
2017-05-14T10:30:44.506Z,57.98
2017-05-14T10:31:45.945Z,56.18
2017-05-14T10:32:47.384Z,56.18
2017-05-14T10:33:48.829Z,55.82
2017-05-14T10:34:50.308Z,55.02
2017-05-14T10:35:51.705Z,56.66
2017-05-14T10:36:53.149Z,57.56
2017-05-14T10:37:54.583Z,56.27
2017-05-14T10:38:56.027Z,57.43
2017-05-14T10:39:57.463Z,59.45
2017-05-14T10:40:58.906Z,56.09
2017-05-14T10:42:00.349Z,57.27
2017-05-14T10:43:01.784Z,56.04
2017-05-14T10:44:03.233Z,54.60
2017-05-14T10:45:04.677Z,54.53
2017-05-14T10:46:06.110Z,53.75
2017-05-14T10:47:07.548Z,53.85
2017-05-14T10:48:08.986Z,54.75
2017-05-14T10:49:10.432Z,54.27
2017-05-14T10:50:12.781Z,52.69
2017-05-14T10:51:14.222Z,53.59
2017-05-14T10:52:15.661Z,50.86
2017-05-14T10:53:17.104Z,52.59
2017-05-14T10:54:18.601Z,51.82
2017-05-14T10:55:20.051Z,51.15
2017-05-14T10:56:21.490Z,51.32
2017-05-14T10:57:22.923Z,53.73
2017-05-14T10:58:24.369Z,54.31
2017-05-14T10:59:25.804Z,53.83
2017-05-14T11:00:27.283Z,54.79
2017-05-14T11:01:28.749Z,53.25
2017-05-14T11:02:30.196Z,53.44
2017-05-14T11:03:31.651Z,55.08
2017-05-14T11:04:33.093Z,55.85
2017-05-14T11:05:34.536Z,56.49
2017-05-14T11:06:35.972Z,57.17
2017-05-14T11:07:37.416Z,55.34
2017-05-14T11:08:38.862Z,56.40
2017-05-14T11:09:40.297Z,57.92
2017-05-14T11:10:41.735Z,57.37
2017-05-14T11:11:43.174Z,54.54
2017-05-14T11:12:44.612Z,54.28
2017-05-14T11:13:46.050Z,56.18
2017-05-14T11:14:47.489Z,55.51
2017-05-14T11:15:48.940Z,55.60
2017-05-14T11:16:50.377Z,54.93
2017-05-14T11:17:51.817Z,55.00
2017-05-14T11:18:53.283Z,56.66
2017-05-14T11:19:54.724Z,59.14
2017-05-14T11:20:56.166Z,56.35
2017-05-14T11:21:57.613Z,55.19
2017-05-14T11:22:59.054Z,56.44
2017-05-14T11:24:00.492Z,56.05
2017-05-14T11:25:01.937Z,55.79
2017-05-14T11:26:03.373Z,53.67
2017-05-14T11:27:04.812Z,55.70
2017-05-14T11:28:06.259Z,56.98
2017-05-14T11:29:07.700Z,58.52
2017-05-14T11:30:09.149Z,58.49
2017-05-14T11:31:10.584Z,56.37
2017-05-14T11:32:12.019Z,58.20
2017-05-14T11:33:13.467Z,58.81
2017-05-14T11:34:14.931Z,57.37
2017-05-14T11:35:16.371Z,55.66
2017-05-14T11:36:17.810Z,54.50
2017-05-14T11:37:19.254Z,53.89
2017-05-14T11:38:20.696Z,51.97
2017-05-14T11:39:22.137Z,54.66
2017-05-14T11:40:23.586Z,53.80
2017-05-14T11:41:25.038Z,54.79
2017-05-14T11:42:27.381Z,56.72
2017-05-14T11:43:28.907Z,54.98
2017-05-14T11:44:30.350Z,54.86
2017-05-14T11:45:31.788Z,55.66
2017-05-14T11:46:33.239Z,56.04
2017-05-14T11:47:34.674Z,55.10
2017-05-14T11:48:36.112Z,55.30
2017-05-14T11:49:37.559Z,53.30
2017-05-14T11:50:38.989Z,51.01
2017-05-14T11:51:40.426Z,50.33
2017-05-14T11:52:41.868Z,52.55
2017-05-14T11:53:43.309Z,50.33
2017-05-14T11:54:44.759Z,51.61
2017-05-14T11:55:46.198Z,51.90
2017-05-14T11:56:47.635Z,48.93
2017-05-14T11:57:49.118Z,50.60
2017-05-14T11:58:50.560Z,48.37
2017-05-14T11:59:51.996Z,49.34
2017-05-14T12:00:53.443Z,47.60
2017-05-14T12:01:54.880Z,46.15
2017-05-14T12:02:56.319Z,48.08
2017-05-14T12:03:57.757Z,49.46
2017-05-14T12:04:59.244Z,46.92
2017-05-14T12:06:00.686Z,48.11
2017-05-14T12:07:02.128Z,48.06
2017-05-14T12:08:03.575Z,49.29
2017-05-14T12:09:05.104Z,49.85
2017-05-14T12:10:06.542Z,51.59
2017-05-14T12:11:07.977Z,51.49
2017-05-14T12:12:09.411Z,51.37
2017-05-14T12:13:10.862Z,51.15
2017-05-14T12:14:12.288Z,51.82
2017-05-14T12:15:13.723Z,56.36
2017-05-14T12:16:16.011Z,55.36
2017-05-14T12:17:17.453Z,53.83
2017-05-14T12:18:18.895Z,56.62
2017-05-14T12:19:20.331Z,54.31
2017-05-14T12:20:21.774Z,51.70
2017-05-14T12:21:23.273Z,51.80
2017-05-14T12:22:24.717Z,50.35
2017-05-14T12:23:26.169Z,50.23
2017-05-14T12:24:27.604Z,49.77
2017-05-14T12:25:29.040Z,52.57
2017-05-14T12:26:30.498Z,53.92
2017-05-14T12:27:32.827Z,53.85
2017-05-14T12:28:34.262Z,54.79
2017-05-14T12:29:35.710Z,51.39
2017-05-14T12:30:37.157Z,53.05
2017-05-14T12:31:38.667Z,50.28
2017-05-14T12:32:40.103Z,50.76
2017-05-14T12:33:41.547Z,50.50
2017-05-14T12:34:42.988Z,51.61
2017-05-14T12:35:44.425Z,50.45
2017-05-14T12:36:45.866Z,49.90
2017-05-14T12:37:47.362Z,46.00
2017-05-14T12:38:48.807Z,49.02
2017-05-14T12:39:50.252Z,43.99
2017-05-14T12:40:51.699Z,46.22
2017-05-14T12:41:53.159Z,46.25
2017-05-14T12:42:55.292Z,44.50
2017-05-14T12:43:56.730Z,43.55
2017-05-14T12:44:58.172Z,42.61
2017-05-14T12:45:59.623Z,43.77
2017-05-14T12:47:01.067Z,44.74
2017-05-14T12:48:02.514Z,48.39
2017-05-14T12:49:03.945Z,43.44
2017-05-14T12:50:05.399Z,42.88
2017-05-14T12:51:06.836Z,43.27
2017-05-14T12:52:08.280Z,43.24
2017-05-14T12:53:09.737Z,44.56
2017-05-14T12:54:11.167Z,46.10
2017-05-14T12:55:12.611Z,47.65
2017-05-14T12:56:14.061Z,47.19
2017-05-14T12:57:15.515Z,45.04
2017-05-14T12:58:16.946Z,45.18
2017-05-14T12:59:18.385Z,43.82
2017-05-14T13:00:20.788Z,45.78
2017-05-14T13:01:22.232Z,43.27
2017-05-14T13:02:23.673Z,42.10
2017-05-14T13:03:25.116Z,42.28
2017-05-14T13:04:26.553Z,44.53
2017-05-14T13:05:27.993Z,42.59
2017-05-14T13:06:29.439Z,41.45
2017-05-14T13:07:30.926Z,42.00
2017-05-14T13:08:32.325Z,41.89
2017-05-14T13:09:33.769Z,41.52
2017-05-14T13:10:35.203Z,43.05
2017-05-14T13:11:36.643Z,40.81